createdAt,value
2018-02-17T00:00:10.403Z,1020.40
2018-02-17T00:01:10.386Z,1020.41
2018-02-17T00:02:10.359Z,1020.42
2018-02-17T00:03:10.332Z,1020.41
2018-02-17T00:04:10.327Z,1020.38
2018-02-17T00:05:10.293Z,1020.35
2018-02-17T00:06:10.266Z,1020.36
2018-02-17T00:07:10.298Z,1020.35
2018-02-17T00:08:10.210Z,1020.34
2018-02-17T00:09:10.196Z,1020.32
2018-02-17T00:10:10.160Z,1020.34
2018-02-17T00:11:10.144Z,1020.30
2018-02-17T00:12:10.112Z,1020.30
2018-02-17T00:13:10.088Z,1020.27
2018-02-17T00:14:10.075Z,1020.25
2018-02-17T00:15:10.049Z,1020.31
2018-02-17T00:16:10.018Z,1020.23
2018-02-17T00:17:10.042Z,1020.25
2018-02-17T00:18:09.970Z,1020.25
2018-02-17T00:19:09.953Z,1020.27
2018-02-17T00:20:09.922Z,1020.24
2018-02-17T00:21:09.895Z,1020.25
2018-02-17T00:22:09.879Z,1020.23
2018-02-17T00:23:09.849Z,1020.25
2018-02-17T00:24:09.823Z,1020.24
2018-02-17T00:25:09.807Z,1020.22
2018-02-17T00:26:09.779Z,1020.24
2018-02-17T00:27:09.749Z,1020.24
2018-02-17T00:28:09.728Z,1020.28
2018-02-17T00:29:09.852Z,1020.27
2018-02-17T00:30:09.676Z,1020.28
2018-02-17T00:31:09.660Z,1020.31
2018-02-17T00:32:09.636Z,1020.29
2018-02-17T00:33:09.609Z,1020.29
2018-02-17T00:34:09.580Z,1020.27
2018-02-17T00:35:09.616Z,1020.31
2018-02-17T00:36:09.537Z,1020.27
2018-02-17T00:37:09.506Z,1020.26
2018-02-17T00:38:09.487Z,1020.31
2018-02-17T00:39:09.455Z,1020.31
2018-02-17T00:40:09.434Z,1020.28
2018-02-17T00:41:09.408Z,1020.31
2018-02-17T00:42:09.384Z,1020.34
2018-02-17T00:43:09.360Z,1020.33
2018-02-17T00:44:09.335Z,1020.30
2018-02-17T00:45:09.312Z,1020.33
2018-02-17T00:46:09.288Z,1020.33
2018-02-17T00:47:09.271Z,1020.33
2018-02-17T00:48:09.248Z,1020.33
2018-02-17T00:49:09.218Z,1020.32
2018-02-17T00:50:09.191Z,1020.35
2018-02-17T00:51:09.163Z,1020.38
2018-02-17T00:52:09.143Z,1020.32
2018-02-17T00:53:09.122Z,1020.31
2018-02-17T00:54:09.094Z,1020.23
2018-02-17T00:55:09.076Z,1020.20
2018-02-17T00:56:09.046Z,1020.21
2018-02-17T00:57:09.022Z,1020.16
2018-02-17T00:58:08.995Z,1020.12
2018-02-17T00:59:08.972Z,1020.14
2018-02-17T01:00:08.946Z,1020.16
2018-02-17T01:01:08.929Z,1020.13
2018-02-17T01:02:08.907Z,1020.17
2018-02-17T01:03:08.874Z,1020.18
2018-02-17T01:04:08.860Z,1020.25
2018-02-17T01:05:08.877Z,1020.20
2018-02-17T01:06:08.798Z,1020.22
2018-02-17T01:07:08.779Z,1020.22
2018-02-17T01:08:08.750Z,1020.17
2018-02-17T01:09:08.737Z,1020.20
2018-02-17T01:10:08.703Z,1020.16
2018-02-17T01:11:08.680Z,1020.19
2018-02-17T01:12:08.661Z,1020.19
2018-02-17T01:13:08.628Z,1020.17
2018-02-17T01:14:08.615Z,1020.15
2018-02-17T01:15:08.579Z,1020.09
2018-02-17T01:16:08.555Z,1020.16
2018-02-17T01:17:08.534Z,1020.15
2018-02-17T01:18:08.507Z,1020.14
2018-02-17T01:19:08.480Z,1020.14
2018-02-17T01:20:08.456Z,1020.08
2018-02-17T01:21:08.433Z,1020.09
2018-02-17T01:22:08.410Z,1020.08
2018-02-17T01:23:08.389Z,1020.11
2018-02-17T01:24:08.449Z,1020.10
2018-02-17T01:25:08.334Z,1020.13
2018-02-17T01:26:08.310Z,1020.14
2018-02-17T01:27:08.335Z,1020.10
2018-02-17T01:28:08.259Z,1020.12
2018-02-17T01:29:08.238Z,1020.08
2018-02-17T01:30:08.213Z,1020.08
2018-02-17T01:31:08.187Z,1020.03
2018-02-17T01:32:08.162Z,1020.03
2018-02-17T01:33:08.135Z,1019.93
2018-02-17T01:34:08.124Z,1019.92
2018-02-17T01:35:08.086Z,1019.91
2018-02-17T01:36:08.065Z,1019.84
2018-02-17T01:37:08.039Z,1019.84
2018-02-17T01:38:08.022Z,1019.80
2018-02-17T01:39:07.988Z,1019.79
2018-02-17T01:40:07.966Z,1019.80
2018-02-17T01:41:07.941Z,1019.73
2018-02-17T01:42:07.914Z,1019.78
2018-02-17T01:43:07.896Z,1019.70
2018-02-17T01:44:07.868Z,1019.73
2018-02-17T01:45:07.845Z,1019.63
2018-02-17T01:46:07.824Z,1019.68
2018-02-17T01:47:07.796Z,1019.68
2018-02-17T01:48:07.766Z,1019.69
2018-02-17T01:49:07.741Z,1019.67
2018-02-17T01:50:07.718Z,1019.65
2018-02-17T01:51:07.691Z,1019.68
2018-02-17T01:52:07.666Z,1019.64
2018-02-17T01:53:07.643Z,1019.63
2018-02-17T01:54:07.620Z,1019.58
2018-02-17T01:55:07.591Z,1019.55
2018-02-17T01:56:07.566Z,1019.53
2018-02-17T01:57:07.540Z,1019.55
2018-02-17T01:58:07.516Z,1019.50
2018-02-17T01:59:07.490Z,1019.53
2018-02-17T02:00:07.475Z,1019.51
2018-02-17T02:01:07.441Z,1019.46
2018-02-17T02:02:07.416Z,1019.47
2018-02-17T02:03:07.392Z,1019.46
2018-02-17T02:04:07.867Z,1019.45
2018-02-17T02:05:07.351Z,1019.48
2018-02-17T02:06:07.324Z,1019.43
2018-02-17T02:07:07.292Z,1019.43
2018-02-17T02:08:07.265Z,1019.41
2018-02-17T02:09:07.241Z,1019.44
2018-02-17T02:10:07.352Z,1019.43
2018-02-17T02:11:07.189Z,1019.42
2018-02-17T02:12:07.167Z,1019.37
2018-02-17T02:13:07.227Z,1019.37
2018-02-17T02:14:07.117Z,1019.35
2018-02-17T02:15:07.089Z,1019.35
2018-02-17T02:16:07.087Z,1019.37
2018-02-17T02:17:07.047Z,1019.33
2018-02-17T02:18:07.016Z,1019.32
2018-02-17T02:19:06.989Z,1019.32
2018-02-17T02:20:06.962Z,1019.30
2018-02-17T02:21:06.945Z,1019.27
2018-02-17T02:22:06.924Z,1019.24
2018-02-17T02:23:06.890Z,1019.24
2018-02-17T02:24:06.861Z,1019.20
2018-02-17T02:25:06.858Z,1019.22
2018-02-17T02:26:06.819Z,1019.28
2018-02-17T02:27:06.787Z,1019.30
2018-02-17T02:28:06.760Z,1019.27
2018-02-17T02:29:06.739Z,1019.29
2018-02-17T02:30:06.713Z,1019.30
2018-02-17T02:31:06.692Z,1019.29
2018-02-17T02:32:06.672Z,1019.31
2018-02-17T02:33:06.641Z,1019.26
2018-02-17T02:34:06.615Z,1019.22
2018-02-17T02:35:06.594Z,1019.22
2018-02-17T02:36:06.557Z,1019.20
2018-02-17T02:37:06.550Z,1019.22
2018-02-17T02:38:06.509Z,1019.26
2018-02-17T02:39:06.487Z,1019.28
2018-02-17T02:40:06.458Z,1019.32
2018-02-17T02:41:06.436Z,1019.36
2018-02-17T02:42:06.410Z,1019.37
2018-02-17T02:43:06.390Z,1019.35
2018-02-17T02:44:06.361Z,1019.37
2018-02-17T02:45:06.331Z,1019.32
2018-02-17T02:46:06.307Z,1019.33
2018-02-17T02:47:06.281Z,1019.33
2018-02-17T02:48:06.258Z,1019.37
2018-02-17T02:49:06.235Z,1019.33
2018-02-17T02:50:06.207Z,1019.35
2018-02-17T02:51:06.178Z,1019.34
2018-02-17T02:52:06.157Z,1019.33
2018-02-17T02:53:06.130Z,1019.29
2018-02-17T02:54:06.103Z,1019.28
2018-02-17T02:55:06.075Z,1019.28
2018-02-17T02:56:06.050Z,1019.27
2018-02-17T02:57:06.026Z,1019.22
2018-02-17T02:58:06.009Z,1019.27
2018-02-17T02:59:05.975Z,1019.31
2018-02-17T03:00:05.948Z,1019.29
2018-02-17T03:01:05.920Z,1019.30
2018-02-17T03:02:05.898Z,1019.36
2018-02-17T03:03:05.872Z,1019.34
2018-02-17T03:04:05.845Z,1019.33
2018-02-17T03:05:05.903Z,1019.37
2018-02-17T03:06:05.799Z,1019.31
2018-02-17T03:07:05.767Z,1019.33
2018-02-17T03:08:05.823Z,1019.34
2018-02-17T03:09:05.719Z,1019.36
2018-02-17T03:10:05.697Z,1019.38
2018-02-17T03:11:05.675Z,1019.36
2018-02-17T03:12:05.639Z,1019.35
2018-02-17T03:13:05.615Z,1019.34
2018-02-17T03:14:05.588Z,1019.34
2018-02-17T03:15:05.569Z,1019.33
2018-02-17T03:16:05.538Z,1019.31
2018-02-17T03:17:05.513Z,1019.35
2018-02-17T03:18:05.490Z,1019.30
2018-02-17T03:19:05.464Z,1019.26
2018-02-17T03:20:05.433Z,1019.24
2018-02-17T03:21:05.409Z,1019.24
2018-02-17T03:22:05.386Z,1019.24
2018-02-17T03:23:05.359Z,1019.22
2018-02-17T03:24:05.333Z,1019.21
2018-02-17T03:25:05.306Z,1019.20
2018-02-17T03:26:05.284Z,1019.23
2018-02-17T03:27:05.256Z,1019.22
2018-02-17T03:28:05.240Z,1019.19
2018-02-17T03:29:05.203Z,1019.15
2018-02-17T03:30:05.381Z,1019.18
2018-02-17T03:31:05.155Z,1019.19
2018-02-17T03:32:05.128Z,1019.18
2018-02-17T03:33:05.186Z,1019.18
2018-02-17T03:34:05.078Z,1019.23
2018-02-17T03:35:05.052Z,1019.21
2018-02-17T03:36:05.061Z,1019.20
2018-02-17T03:37:04.996Z,1019.22
2018-02-17T03:38:04.976Z,1019.21
2018-02-17T03:39:04.948Z,1019.16
2018-02-17T03:40:04.922Z,1019.13
2018-02-17T03:41:04.894Z,1019.14
2018-02-17T03:42:04.872Z,1019.12
2018-02-17T03:43:04.844Z,1019.14
2018-02-17T03:44:04.816Z,1019.09
2018-02-17T03:45:04.791Z,1019.17
2018-02-17T03:46:04.767Z,1019.14
2018-02-17T03:47:04.739Z,1019.13
2018-02-17T03:48:04.712Z,1019.07
2018-02-17T03:49:04.837Z,1019.08
2018-02-17T03:50:04.664Z,1019.06
2018-02-17T03:51:04.638Z,1019.09
2018-02-17T03:52:04.614Z,1019.05
2018-02-17T03:53:04.592Z,1019.06
2018-02-17T03:54:04.557Z,1019.08
2018-02-17T03:55:04.530Z,1019.06
2018-02-17T03:56:04.508Z,1019.09
2018-02-17T03:57:04.479Z,1019.07
2018-02-17T03:58:04.457Z,1019.09
2018-02-17T03:59:04.430Z,1019.07
2018-02-17T04:00:04.401Z,1019.03
2018-02-17T04:01:04.375Z,1018.98
2018-02-17T04:02:04.350Z,1018.99
2018-02-17T04:03:04.328Z,1019.01
2018-02-17T04:04:04.295Z,1019.01
2018-02-17T04:05:04.270Z,1018.99
2018-02-17T04:06:04.249Z,1019.04
2018-02-17T04:07:04.221Z,1019.04
2018-02-17T04:08:04.194Z,1019.05
2018-02-17T04:09:04.170Z,1019.02
2018-02-17T04:10:04.144Z,1019.00
2018-02-17T04:11:04.120Z,1018.97
2018-02-17T04:12:04.093Z,1018.97
2018-02-17T04:13:04.063Z,1018.92
2018-02-17T04:14:04.038Z,1018.93
2018-02-17T04:15:04.011Z,1018.91
2018-02-17T04:16:03.983Z,1018.88
2018-02-17T04:17:03.960Z,1018.86
2018-02-17T04:18:03.990Z,1018.90
2018-02-17T04:19:03.906Z,1018.92
2018-02-17T04:20:03.886Z,1018.91
2018-02-17T04:21:03.855Z,1018.93
2018-02-17T04:22:03.851Z,1018.91
2018-02-17T04:23:03.803Z,1018.91
2018-02-17T04:24:03.776Z,1018.86
2018-02-17T04:25:03.832Z,1018.83
2018-02-17T04:26:03.725Z,1018.84
2018-02-17T04:27:03.699Z,1018.85
2018-02-17T04:28:03.675Z,1018.83
2018-02-17T04:29:03.645Z,1018.78
2018-02-17T04:30:03.647Z,1018.78
2018-02-17T04:31:03.593Z,1018.78
2018-02-17T04:32:03.579Z,1018.80
2018-02-17T04:33:03.539Z,1018.81
2018-02-17T04:34:03.518Z,1018.80
2018-02-17T04:35:03.591Z,1018.79
2018-02-17T04:36:03.483Z,1018.78
2018-02-17T04:37:03.438Z,1018.76
2018-02-17T04:38:03.410Z,1018.74
2018-02-17T04:39:03.384Z,1018.67
2018-02-17T04:40:03.359Z,1018.69
2018-02-17T04:41:03.335Z,1018.66
2018-02-17T04:42:03.309Z,1018.67
2018-02-17T04:43:03.280Z,1018.66
2018-02-17T04:44:03.255Z,1018.62
2018-02-17T04:45:03.377Z,1018.67
2018-02-17T04:46:03.209Z,1018.60
2018-02-17T04:47:03.178Z,1018.58
2018-02-17T04:48:03.178Z,1018.57
2018-02-17T04:49:03.125Z,1018.54
2018-02-17T04:50:03.098Z,1018.55
2018-02-17T04:51:03.108Z,1018.53
2018-02-17T04:52:03.048Z,1018.52
2018-02-17T04:53:03.024Z,1018.52
2018-02-17T04:54:02.995Z,1018.46
2018-02-17T04:55:02.968Z,1018.40
2018-02-17T04:56:02.942Z,1018.38
2018-02-17T04:57:02.924Z,1018.37
2018-02-17T04:58:02.892Z,1018.39
2018-02-17T04:59:02.863Z,1018.36
2018-02-17T05:00:02.837Z,1018.38
2018-02-17T05:01:02.812Z,1018.34
2018-02-17T05:02:02.786Z,1018.36
2018-02-17T05:03:02.765Z,1018.43
2018-02-17T05:04:02.732Z,1018.39
2018-02-17T05:05:02.708Z,1018.36
2018-02-17T05:06:02.680Z,1018.33
2018-02-17T05:07:02.658Z,1018.33
2018-02-17T05:08:02.627Z,1018.29
2018-02-17T05:09:02.600Z,1018.31
2018-02-17T05:10:02.578Z,1018.32
2018-02-17T05:11:02.548Z,1018.33
2018-02-17T05:12:02.526Z,1018.31
2018-02-17T05:13:02.564Z,1018.27
2018-02-17T05:14:02.471Z,1018.19
2018-02-17T05:15:02.446Z,1018.19
2018-02-17T05:16:02.415Z,1018.16
2018-02-17T05:17:02.390Z,1018.20
2018-02-17T05:18:02.365Z,1018.18
2018-02-17T05:19:02.336Z,1018.21
2018-02-17T05:20:02.311Z,1018.18
2018-02-17T05:21:02.287Z,1018.20
2018-02-17T05:22:02.271Z,1018.19
2018-02-17T05:23:02.232Z,1018.16
2018-02-17T05:24:02.208Z,1018.15
2018-02-17T05:25:02.187Z,1018.14
2018-02-17T05:26:02.158Z,1018.11
2018-02-17T05:27:02.132Z,1018.17
2018-02-17T05:28:02.101Z,1018.16
2018-02-17T05:29:02.077Z,1018.16
2018-02-17T05:30:02.051Z,1018.16
2018-02-17T05:31:02.024Z,1018.12
2018-02-17T05:32:01.998Z,1018.18
2018-02-17T05:33:01.972Z,1018.08
2018-02-17T05:34:01.968Z,1018.12
2018-02-17T05:35:01.920Z,1018.11
2018-02-17T05:36:01.895Z,1018.10
2018-02-17T05:37:01.869Z,1018.11
2018-02-17T05:38:01.840Z,1018.12
2018-02-17T05:39:01.873Z,1018.08
2018-02-17T05:40:01.788Z,1018.04
2018-02-17T05:41:01.760Z,1018.04
2018-02-17T05:42:01.839Z,1018.06
2018-02-17T05:43:01.709Z,1018.03
2018-02-17T05:44:01.687Z,1018.04
2018-02-17T05:45:01.662Z,1018.06
2018-02-17T05:46:01.634Z,1018.05
2018-02-17T05:47:01.605Z,1018.02
2018-02-17T05:48:01.580Z,1018.01
2018-02-17T05:49:01.556Z,1018.02
2018-02-17T05:50:01.527Z,1018.02
2018-02-17T05:51:01.500Z,1018.03
2018-02-17T05:52:01.477Z,1018.04
2018-02-17T05:53:01.449Z,1018.05
2018-02-17T05:54:01.434Z,1018.02
2018-02-17T05:55:01.399Z,1018.03
2018-02-17T05:56:01.373Z,1018.08
2018-02-17T05:57:01.343Z,1018.05
2018-02-17T05:58:01.316Z,1018.05
2018-02-17T05:59:01.308Z,1018.07
2018-02-17T06:00:01.265Z,1018.04
2018-02-17T06:01:01.241Z,1018.06
2018-02-17T06:02:01.213Z,1017.99
2018-02-17T06:03:01.185Z,1018.00
2018-02-17T06:04:01.160Z,1017.99
2018-02-17T06:05:01.135Z,1017.96
2018-02-17T06:06:01.109Z,1017.98
2018-02-17T06:07:01.082Z,1017.98
2018-02-17T06:08:01.053Z,1017.97
2018-02-17T06:09:01.029Z,1017.95
2018-02-17T06:10:01.002Z,1017.98
2018-02-17T06:11:00.978Z,1017.97
2018-02-17T06:12:00.950Z,1018.08
2018-02-17T06:13:00.924Z,1018.03
2018-02-17T06:14:00.898Z,1018.05
2018-02-17T06:15:00.879Z,1018.04
2018-02-17T06:16:00.844Z,1018.05
2018-02-17T06:17:00.819Z,1018.09
2018-02-17T06:18:00.797Z,1018.05
2018-02-17T06:19:00.766Z,1018.07
2018-02-17T06:20:00.739Z,1018.04
2018-02-17T06:21:00.716Z,1018.02
2018-02-17T06:22:00.697Z,1018.01
2018-02-17T06:23:00.661Z,1017.99
2018-02-17T06:24:00.639Z,1017.98
2018-02-17T06:25:00.616Z,1018.01
2018-02-17T06:26:00.597Z,1018.02
2018-02-17T06:27:00.558Z,1018.05
2018-02-17T06:28:00.546Z,1018.06
2018-02-17T06:29:00.503Z,1018.07
2018-02-17T06:30:00.479Z,1018.08
2018-02-17T06:31:00.465Z,1018.05
2018-02-17T06:32:00.435Z,1018.01
2018-02-17T06:33:00.405Z,1018.00
2018-02-17T06:34:00.375Z,1018.03
2018-02-17T06:35:00.348Z,1018.02
2018-02-17T06:36:00.324Z,1018.05
2018-02-17T06:37:00.294Z,1018.03
2018-02-17T06:38:00.272Z,1018.04
2018-02-17T06:39:00.242Z,1018.09
2018-02-17T06:40:00.224Z,1018.10
2018-02-17T06:41:00.190Z,1018.11
2018-02-17T06:42:00.164Z,1018.03
2018-02-17T06:43:00.140Z,1018.08
2018-02-17T06:44:00.114Z,1018.07
2018-02-17T06:45:00.094Z,1018.10
2018-02-17T06:46:00.081Z,1018.08
2018-02-17T06:47:00.050Z,1018.12
2018-02-17T06:48:00.011Z,1018.12
2018-02-17T06:48:59.981Z,1018.06
2018-02-17T06:49:59.960Z,1018.10
2018-02-17T06:50:59.930Z,1018.07
2018-02-17T06:51:59.901Z,1018.09
2018-02-17T06:53:00.065Z,1018.09
2018-02-17T06:53:59.851Z,1018.03
2018-02-17T06:54:59.824Z,1017.99
2018-02-17T06:55:59.801Z,1018.01
2018-02-17T06:56:59.775Z,1017.97
2018-02-17T06:57:59.748Z,1018.02
2018-02-17T06:58:59.721Z,1017.93
2018-02-17T06:59:59.697Z,1017.90
2018-02-17T07:00:59.668Z,1017.87
2018-02-17T07:01:59.649Z,1017.86
2018-02-17T07:02:59.628Z,1017.86
2018-02-17T07:03:59.587Z,1017.87
2018-02-17T07:04:59.574Z,1017.81
2018-02-17T07:05:59.634Z,1017.81
2018-02-17T07:06:59.521Z,1017.81
2018-02-17T07:07:59.486Z,1017.78
2018-02-17T07:08:59.539Z,1017.79
2018-02-17T07:09:59.436Z,1017.75
2018-02-17T07:10:59.405Z,1017.76
2018-02-17T07:11:59.390Z,1017.74
2018-02-17T07:12:59.357Z,1017.73
2018-02-17T07:13:59.337Z,1017.67
2018-02-17T07:14:59.305Z,1017.67
2018-02-17T07:15:59.277Z,1017.70
2018-02-17T07:16:59.264Z,1017.66
2018-02-17T07:17:59.229Z,1017.67
2018-02-17T07:18:59.200Z,1017.62
2018-02-17T07:19:59.174Z,1017.65
2018-02-17T07:20:59.146Z,1017.67
2018-02-17T07:21:59.132Z,1017.73
2018-02-17T07:22:59.099Z,1017.65
2018-02-17T07:23:59.071Z,1017.63
2018-02-17T07:24:59.045Z,1017.60
2018-02-17T07:25:59.023Z,1017.61
2018-02-17T07:26:58.995Z,1017.61
2018-02-17T07:27:58.976Z,1017.62
2018-02-17T07:28:58.949Z,1017.58
2018-02-17T07:29:58.925Z,1017.59
2018-02-17T07:30:58.896Z,1017.55
2018-02-17T07:31:58.864Z,1017.55
2018-02-17T07:32:58.847Z,1017.57
2018-02-17T07:33:58.818Z,1017.57
2018-02-17T07:34:58.788Z,1017.59
2018-02-17T07:35:58.762Z,1017.58
2018-02-17T07:36:58.741Z,1017.62
2018-02-17T07:37:58.712Z,1017.61
2018-02-17T07:38:58.686Z,1017.54
2018-02-17T07:39:58.661Z,1017.50
2018-02-17T07:40:58.634Z,1017.51
2018-02-17T07:41:58.610Z,1017.50
2018-02-17T07:42:58.584Z,1017.54
2018-02-17T07:43:58.561Z,1017.53
2018-02-17T07:44:58.532Z,1017.55
2018-02-17T07:45:58.514Z,1017.53
2018-02-17T07:46:58.482Z,1017.52
2018-02-17T07:47:58.457Z,1017.54
2018-02-17T07:48:58.434Z,1017.52
2018-02-17T07:49:58.410Z,1017.54
2018-02-17T07:50:58.379Z,1017.55
2018-02-17T07:51:58.359Z,1017.55
2018-02-17T07:52:58.333Z,1017.49
2018-02-17T07:53:58.309Z,1017.50
2018-02-17T07:54:58.285Z,1017.47
2018-02-17T07:55:58.254Z,1017.46
2018-02-17T07:56:58.239Z,1017.45
2018-02-17T07:57:58.203Z,1017.44
2018-02-17T07:58:58.186Z,1017.39
2018-02-17T07:59:58.154Z,1017.44
2018-02-17T08:00:58.131Z,1017.45
2018-02-17T08:01:58.112Z,1017.49
2018-02-17T08:02:58.079Z,1017.43
2018-02-17T08:03:58.062Z,1017.50
2018-02-17T08:04:58.030Z,1017.49
2018-02-17T08:05:58.013Z,1017.49
2018-02-17T08:06:57.982Z,1017.46
2018-02-17T08:07:57.954Z,1017.44
2018-02-17T08:08:57.934Z,1017.44
2018-02-17T08:09:57.907Z,1017.44
2018-02-17T08:10:57.880Z,1017.38
2018-02-17T08:11:57.858Z,1017.45
2018-02-17T08:12:57.829Z,1017.43
2018-02-17T08:13:57.808Z,1017.44
2018-02-17T08:14:57.783Z,1017.43
2018-02-17T08:15:57.758Z,1017.40
2018-02-17T08:16:57.739Z,1017.40
2018-02-17T08:17:57.706Z,1017.41
2018-02-17T08:18:57.682Z,1017.36
2018-02-17T08:19:57.660Z,1017.40
2018-02-17T08:20:57.728Z,1017.39
2018-02-17T08:21:57.611Z,1017.38
2018-02-17T08:22:57.586Z,1017.42
2018-02-17T08:23:57.586Z,1017.44
2018-02-17T08:24:57.546Z,1017.51
2018-02-17T08:25:57.511Z,1017.56
2018-02-17T08:26:57.488Z,1017.51
2018-02-17T08:27:57.466Z,1017.52
2018-02-17T08:28:57.446Z,1017.55
2018-02-17T08:29:57.427Z,1017.57
2018-02-17T08:30:57.390Z,1017.57
2018-02-17T08:31:57.365Z,1017.53
2018-02-17T08:32:57.340Z,1017.56
2018-02-17T08:33:57.321Z,1017.56
2018-02-17T08:34:57.295Z,1017.56
2018-02-17T08:35:57.267Z,1017.55
2018-02-17T08:36:57.253Z,1017.55
2018-02-17T08:37:57.240Z,1017.55
2018-02-17T08:38:57.205Z,1017.53
2018-02-17T08:39:57.175Z,1017.55
2018-02-17T08:40:57.150Z,1017.53
2018-02-17T08:41:57.136Z,1017.51
2018-02-17T08:42:57.204Z,1017.52
2018-02-17T08:43:57.081Z,1017.49
2018-02-17T08:44:57.059Z,1017.50
2018-02-17T08:45:57.030Z,1017.50
2018-02-17T08:46:57.007Z,1017.48
2018-02-17T08:47:56.984Z,1017.42
2018-02-17T08:48:56.971Z,1017.43
2018-02-17T08:49:56.940Z,1017.46
2018-02-17T08:50:56.915Z,1017.44
2018-02-17T08:51:56.892Z,1017.47
2018-02-17T08:52:56.864Z,1017.47
2018-02-17T08:53:56.856Z,1017.51
2018-02-17T08:54:56.822Z,1017.50
2018-02-17T08:55:56.950Z,1017.49
2018-02-17T08:56:56.775Z,1017.46
2018-02-17T08:57:56.779Z,1017.47
2018-02-17T08:58:56.736Z,1017.47
2018-02-17T08:59:56.706Z,1017.51
2018-02-17T09:00:56.694Z,1017.45
2018-02-17T09:01:56.741Z,1017.45
2018-02-17T09:02:56.627Z,1017.44
2018-02-17T09:03:56.615Z,1017.42
2018-02-17T09:04:56.593Z,1017.42
2018-02-17T09:05:56.571Z,1017.41
2018-02-17T09:06:56.537Z,1017.44
2018-02-17T09:07:56.513Z,1017.42
2018-02-17T09:08:56.499Z,1017.41
2018-02-17T09:09:56.473Z,1017.44
2018-02-17T09:10:56.443Z,1017.46
2018-02-17T09:11:56.423Z,1017.47
2018-02-17T09:12:56.402Z,1017.43
2018-02-17T09:13:56.377Z,1017.45
2018-02-17T09:14:56.356Z,1017.43
2018-02-17T09:15:56.332Z,1017.43
2018-02-17T09:16:56.307Z,1017.41
2018-02-17T09:17:56.290Z,1017.41
2018-02-17T09:18:56.279Z,1017.42
2018-02-17T09:19:56.240Z,1017.36
2018-02-17T09:20:56.216Z,1017.41
2018-02-17T09:21:56.194Z,1017.42
2018-02-17T09:22:56.172Z,1017.43
2018-02-17T09:23:56.155Z,1017.42
2018-02-17T09:24:56.126Z,1017.44
2018-02-17T09:25:56.102Z,1017.47
2018-02-17T09:26:56.091Z,1017.54
2018-02-17T09:27:56.058Z,1017.51
2018-02-17T09:28:56.063Z,1017.54
2018-02-17T09:29:56.013Z,1017.56
2018-02-17T09:30:55.994Z,1017.58
2018-02-17T09:31:55.970Z,1017.59
2018-02-17T09:32:55.945Z,1017.61
2018-02-17T09:33:55.922Z,1017.60
2018-02-17T09:34:55.903Z,1017.60
2018-02-17T09:35:55.879Z,1017.64
2018-02-17T09:36:55.859Z,1017.65
2018-02-17T09:37:55.835Z,1017.61
2018-02-17T09:38:55.820Z,1017.62
2018-02-17T09:39:55.788Z,1017.62
2018-02-17T09:40:55.769Z,1017.63
2018-02-17T09:41:55.854Z,1017.62
2018-02-17T09:42:55.727Z,1017.67
2018-02-17T09:43:55.705Z,1017.66
2018-02-17T09:44:55.677Z,1017.68
2018-02-17T09:45:55.658Z,1017.68
2018-02-17T09:46:55.641Z,1017.72
2018-02-17T09:47:55.612Z,1017.71
2018-02-17T09:48:55.599Z,1017.73
2018-02-17T09:49:55.579Z,1017.69
2018-02-17T09:50:55.557Z,1017.71
2018-02-17T09:51:55.527Z,1017.68
2018-02-17T09:52:55.506Z,1017.74
2018-02-17T09:53:55.486Z,1017.73
2018-02-17T09:54:55.485Z,1017.75
2018-02-17T09:55:55.446Z,1017.79
2018-02-17T09:56:55.429Z,1017.78
2018-02-17T09:57:55.498Z,1017.80
2018-02-17T09:58:55.379Z,1017.85
2018-02-17T09:59:55.372Z,1017.86
2018-02-17T10:00:55.354Z,1017.84
2018-02-17T10:01:55.314Z,1017.86
2018-02-17T10:02:55.297Z,1017.86
2018-02-17T10:03:55.296Z,1017.87
2018-02-17T10:04:55.263Z,1017.84
2018-02-17T10:05:55.234Z,1017.86
2018-02-17T10:06:55.221Z,1017.89
2018-02-17T10:07:55.196Z,1017.88
2018-02-17T10:08:55.183Z,1017.87
2018-02-17T10:09:55.163Z,1017.87
2018-02-17T10:10:55.138Z,1017.89
2018-02-17T10:11:55.116Z,1017.90
2018-02-17T10:12:55.100Z,1017.90
2018-02-17T10:13:55.092Z,1017.88
2018-02-17T10:14:55.055Z,1017.98
2018-02-17T10:15:55.046Z,1017.95
2018-02-17T10:16:55.017Z,1017.92
2018-02-17T10:17:55.001Z,1017.99
2018-02-17T10:18:54.975Z,1017.95
2018-02-17T10:19:54.957Z,1017.98
2018-02-17T10:20:54.946Z,1017.97
2018-02-17T10:21:54.918Z,1017.99
2018-02-17T10:22:54.896Z,1018.01
2018-02-17T10:23:54.914Z,1017.99
2018-02-17T10:24:54.858Z,1017.98
2018-02-17T10:25:54.838Z,1017.96
2018-02-17T10:26:54.827Z,1017.92
2018-02-17T10:27:54.804Z,1017.93
2018-02-17T10:28:54.787Z,1017.94
2018-02-17T10:29:54.775Z,1017.85
2018-02-17T10:30:54.744Z,1017.85
2018-02-17T10:31:54.723Z,1017.81
2018-02-17T10:32:54.703Z,1017.83
2018-02-17T10:33:54.786Z,1017.81
2018-02-17T10:34:54.666Z,1017.84
2018-02-17T10:35:54.643Z,1017.85
2018-02-17T10:36:54.630Z,1017.86
2018-02-17T10:37:54.607Z,1017.87
2018-02-17T10:38:54.584Z,1017.87
2018-02-17T10:39:54.577Z,1017.90
2018-02-17T10:40:54.544Z,1017.88
2018-02-17T10:41:54.524Z,1017.90
2018-02-17T10:42:54.507Z,1017.90
2018-02-17T10:43:54.488Z,1017.88
2018-02-17T10:44:54.467Z,1017.86
2018-02-17T10:45:54.456Z,1017.84
2018-02-17T10:46:54.434Z,1017.88
2018-02-17T10:47:54.412Z,1017.89
2018-02-17T10:48:54.396Z,1017.85
2018-02-17T10:49:54.371Z,1017.90
2018-02-17T10:50:54.371Z,1017.88
2018-02-17T10:51:54.330Z,1017.88
2018-02-17T10:52:54.323Z,1017.87
2018-02-17T10:53:54.292Z,1017.85
2018-02-17T10:54:54.275Z,1017.95
2018-02-17T10:55:54.255Z,1017.88
2018-02-17T10:56:54.260Z,1017.86
2018-02-17T10:57:54.221Z,1017.87
2018-02-17T10:58:54.206Z,1017.85
2018-02-17T10:59:54.180Z,1017.85
2018-02-17T11:00:54.173Z,1017.85
2018-02-17T11:01:54.151Z,1017.85
2018-02-17T11:02:54.144Z,1017.82
2018-02-17T11:03:54.118Z,1017.83
2018-02-17T11:04:54.087Z,1017.83
2018-02-17T11:05:54.078Z,1017.88
2018-02-17T11:06:54.049Z,1017.83
2018-02-17T11:07:54.028Z,1017.81
2018-02-17T11:08:54.022Z,1017.82
2018-02-17T11:09:53.988Z,1017.84
2018-02-17T11:10:54.054Z,1017.86
2018-02-17T11:11:53.951Z,1017.85
2018-02-17T11:12:53.997Z,1017.87
2018-02-17T11:13:53.915Z,1017.88
2018-02-17T11:14:53.892Z,1017.90
2018-02-17T11:15:53.896Z,1017.87
2018-02-17T11:16:53.916Z,1017.91
2018-02-17T11:17:53.848Z,1017.91
2018-02-17T11:18:53.819Z,1017.92
2018-02-17T11:19:53.809Z,1017.91
2018-02-17T11:20:53.783Z,1017.92
2018-02-17T11:21:53.768Z,1017.86
2018-02-17T11:22:53.752Z,1017.84
2018-02-17T11:23:53.731Z,1017.88
2018-02-17T11:24:53.716Z,1017.86
2018-02-17T11:25:53.770Z,1017.88
2018-02-17T11:26:53.670Z,1017.88
2018-02-17T11:27:53.658Z,1017.94
2018-02-17T11:28:53.651Z,1017.93
2018-02-17T11:29:53.629Z,1017.92
2018-02-17T11:30:53.610Z,1017.93
2018-02-17T11:31:53.583Z,1017.93
2018-02-17T11:32:53.557Z,1017.93
2018-02-17T11:33:53.540Z,1017.92
2018-02-17T11:34:53.530Z,1017.93
2018-02-17T11:35:53.499Z,1017.90
2018-02-17T11:36:53.485Z,1017.90
2018-02-17T11:37:53.469Z,1017.86
2018-02-17T11:38:53.445Z,1017.89
2018-02-17T11:39:53.431Z,1017.84
2018-02-17T11:40:53.413Z,1017.84
2018-02-17T11:41:53.391Z,1017.81
2018-02-17T11:42:53.370Z,1017.78
2018-02-17T11:43:53.349Z,1017.80
2018-02-17T11:44:53.341Z,1017.73
2018-02-17T11:45:53.319Z,1017.72
2018-02-17T11:46:53.296Z,1017.69
2018-02-17T11:47:53.272Z,1017.65
2018-02-17T11:48:53.254Z,1017.70
2018-02-17T11:49:53.236Z,1017.69
2018-02-17T11:50:53.221Z,1017.69
2018-02-17T11:51:53.273Z,1017.70
2018-02-17T11:52:53.176Z,1017.69
2018-02-17T11:53:53.158Z,1017.70
2018-02-17T11:54:53.135Z,1017.70
2018-02-17T11:55:53.116Z,1017.67
2018-02-17T11:56:53.096Z,1017.65
2018-02-17T11:57:53.088Z,1017.66
2018-02-17T11:58:53.083Z,1017.64
2018-02-17T11:59:53.045Z,1017.65
2018-02-17T12:00:53.029Z,1017.68
2018-02-17T12:01:53.006Z,1017.69
2018-02-17T12:02:52.979Z,1017.68
2018-02-17T12:03:52.969Z,1017.71
2018-02-17T12:04:52.942Z,1017.68